createdAt,value
2023-05-21T00:01:03.451Z,0
2023-05-21T00:02:03.465Z,0
2023-05-21T00:03:03.547Z,0
2023-05-21T00:04:03.644Z,0
2023-05-21T00:05:03.457Z,0
2023-05-21T00:06:03.516Z,0
2023-05-21T00:07:03.455Z,0
2023-05-21T00:08:03.511Z,0
2023-05-21T00:09:03.487Z,0
2023-05-21T00:10:03.481Z,0
2023-05-21T00:12:03.467Z,0
2023-05-21T00:13:03.460Z,0
2023-05-21T00:14:03.492Z,0
2023-05-21T00:15:03.462Z,0
2023-05-21T00:16:03.519Z,0
2023-05-21T00:17:03.498Z,0
2023-05-21T00:18:03.520Z,0
2023-05-21T00:19:03.499Z,0
2023-05-21T00:20:03.482Z,0
2023-05-21T00:21:03.489Z,0
2023-05-21T00:22:03.464Z,0
2023-05-21T00:23:03.458Z,0
2023-05-21T00:24:03.485Z,0
2023-05-21T00:25:03.479Z,0
2023-05-21T00:26:03.483Z,0
2023-05-21T00:27:03.478Z,0
2023-05-21T00:28:03.473Z,0
2023-05-21T00:29:03.516Z,0
2023-05-21T00:30:03.472Z,0
2023-05-21T00:31:03.490Z,0
2023-05-21T00:32:03.685Z,0
2023-05-21T00:33:03.586Z,0
2023-05-21T00:34:03.658Z,0
2023-05-21T00:35:03.466Z,0
2023-05-21T00:36:03.466Z,0
2023-05-21T00:37:03.475Z,0
2023-05-21T00:38:03.455Z,0
2023-05-21T00:39:03.479Z,0
2023-05-21T00:40:03.467Z,0
2023-05-21T00:41:03.488Z,0
2023-05-21T00:43:03.498Z,0
2023-05-21T00:44:03.489Z,0
2023-05-21T00:45:03.482Z,0
2023-05-21T00:46:03.538Z,0
2023-05-21T00:47:03.447Z,0
2023-05-21T00:48:03.532Z,0
2023-05-21T00:49:03.480Z,0
2023-05-21T00:50:03.452Z,0
2023-05-21T00:51:03.531Z,0
2023-05-21T00:52:03.485Z,0
2023-05-21T00:53:03.465Z,0
2023-05-21T00:54:03.472Z,0
2023-05-21T00:55:03.479Z,0
2023-05-21T00:56:03.476Z,0
2023-05-21T00:57:03.455Z,0
2023-05-21T00:58:03.479Z,0
2023-05-21T00:59:03.485Z,0
2023-05-21T01:00:03.476Z,0
2023-05-21T01:01:03.661Z,0
2023-05-21T01:02:03.550Z,0
2023-05-21T01:03:03.582Z,0
2023-05-21T01:04:03.467Z,0
2023-05-21T01:05:03.503Z,0
2023-05-21T01:07:03.471Z,0
2023-05-21T01:08:03.587Z,0
2023-05-21T01:09:05.072Z,0
2023-05-21T01:10:03.468Z,0
2023-05-21T01:11:03.474Z,0
2023-05-21T01:12:03.520Z,0
2023-05-21T01:13:03.484Z,0
2023-05-21T01:15:03.461Z,0
2023-05-21T01:16:03.470Z,0
2023-05-21T01:17:03.480Z,0
2023-05-21T01:18:03.588Z,0
2023-05-21T01:19:03.592Z,0
2023-05-21T01:20:03.485Z,0
2023-05-21T01:21:03.460Z,0
2023-05-21T01:22:03.494Z,0
2023-05-21T01:24:03.472Z,0
2023-05-21T01:25:03.498Z,0
2023-05-21T01:26:03.480Z,0
2023-05-21T01:27:03.458Z,0
2023-05-21T01:28:03.463Z,0
2023-05-21T01:29:03.495Z,0
2023-05-21T01:31:03.464Z,0
2023-05-21T01:32:03.504Z,0
2023-05-21T01:33:03.678Z,0
2023-05-21T01:34:03.499Z,0
2023-05-21T01:35:03.478Z,0
2023-05-21T01:36:03.478Z,0
2023-05-21T01:37:03.472Z,0
2023-05-21T01:38:03.468Z,0
2023-05-21T01:39:03.562Z,0
2023-05-21T01:40:03.474Z,0
2023-05-21T01:41:03.473Z,0
2023-05-21T01:42:03.487Z,0
2023-05-21T01:43:03.509Z,0
2023-05-21T01:44:03.490Z,0
2023-05-21T01:45:03.497Z,0
2023-05-21T01:46:03.563Z,0
2023-05-21T01:47:03.522Z,0
2023-05-21T01:48:03.533Z,0
2023-05-21T01:49:03.481Z,0
2023-05-21T01:50:03.481Z,0
2023-05-21T01:51:03.501Z,0
2023-05-21T01:52:03.460Z,0
2023-05-21T01:53:03.488Z,0
2023-05-21T01:54:03.484Z,0
2023-05-21T01:55:03.493Z,0
2023-05-21T01:57:03.484Z,0
2023-05-21T01:58:03.549Z,0
2023-05-21T01:59:03.476Z,0
2023-05-21T02:01:03.486Z,0
2023-05-21T02:02:03.518Z,0
2023-05-21T02:03:03.666Z,0
2023-05-21T02:04:03.586Z,0
2023-05-21T02:05:03.461Z,0
2023-05-21T02:06:03.491Z,0
2023-05-21T02:07:03.468Z,0
2023-05-21T02:08:03.467Z,0
2023-05-21T02:09:03.478Z,0
2023-05-21T02:10:03.483Z,0
2023-05-21T02:11:03.495Z,0
2023-05-21T02:12:03.478Z,0
2023-05-21T02:13:03.524Z,0
2023-05-21T02:14:03.486Z,0
2023-05-21T02:15:03.477Z,0
2023-05-21T02:16:03.504Z,0
2023-05-21T02:17:03.481Z,0
2023-05-21T02:18:03.629Z,0
2023-05-21T02:19:03.477Z,0
2023-05-21T02:20:03.479Z,0
2023-05-21T02:21:03.505Z,0
2023-05-21T02:22:03.484Z,0
2023-05-21T02:23:03.483Z,0
2023-05-21T02:24:03.495Z,0
2023-05-21T02:25:03.491Z,0
2023-05-21T02:26:03.550Z,0
2023-05-21T02:27:03.511Z,0
2023-05-21T02:28:03.521Z,0
2023-05-21T02:29:03.551Z,0
2023-05-21T02:31:03.474Z,0
2023-05-21T02:32:03.484Z,0
2023-05-21T02:33:03.509Z,0
2023-05-21T02:34:03.636Z,0
2023-05-21T02:35:03.491Z,0
2023-05-21T02:36:03.484Z,0
2023-05-21T02:37:03.529Z,0
2023-05-21T02:38:03.475Z,0
2023-05-21T02:39:03.489Z,0
2023-05-21T02:40:03.496Z,0
2023-05-21T02:41:03.525Z,0
2023-05-21T02:42:03.490Z,0
2023-05-21T02:43:03.489Z,0
2023-05-21T02:44:03.483Z,0
2023-05-21T02:45:03.508Z,0
2023-05-21T02:46:03.581Z,0
2023-05-21T02:47:03.518Z,0
2023-05-21T02:48:03.478Z,0
2023-05-21T02:49:03.469Z,0
2023-05-21T02:50:03.483Z,0
2023-05-21T02:51:03.503Z,0
2023-05-21T02:52:03.485Z,0
2023-05-21T02:53:03.476Z,0
2023-05-21T02:54:03.476Z,0
2023-05-21T02:55:03.490Z,0
2023-05-21T02:56:03.482Z,0
2023-05-21T02:57:03.470Z,0
2023-05-21T02:58:03.492Z,0
2023-05-21T02:59:03.500Z,0
2023-05-21T03:01:03.534Z,0
2023-05-21T03:02:03.530Z,0
2023-05-21T03:03:03.592Z,0
2023-05-21T03:04:03.485Z,0
2023-05-21T03:05:03.480Z,0
2023-05-21T03:06:03.500Z,0
2023-05-21T03:07:03.510Z,0
2023-05-21T03:08:03.485Z,0
2023-05-21T03:09:03.484Z,0
2023-05-21T03:10:03.503Z,0
2023-05-21T03:12:03.671Z,0
2023-05-21T03:13:03.545Z,0
2023-05-21T03:14:03.484Z,0
2023-05-21T03:15:03.490Z,0
2023-05-21T03:16:03.521Z,0
2023-05-21T03:17:03.555Z,0
2023-05-21T03:18:03.535Z,0
2023-05-21T03:19:03.544Z,0
2023-05-21T03:20:03.478Z,0
2023-05-21T03:21:03.512Z,0
2023-05-21T03:22:03.510Z,0
2023-05-21T03:23:03.476Z,0
2023-05-21T03:24:03.530Z,0
2023-05-21T03:25:03.485Z,0
2023-05-21T03:26:03.551Z,0
2023-05-21T03:27:03.480Z,0
2023-05-21T03:28:03.505Z,0
2023-05-21T03:29:03.496Z,0
2023-05-21T03:31:03.481Z,0
2023-05-21T03:32:03.554Z,0
2023-05-21T03:33:03.624Z,0
2023-05-21T03:35:03.508Z,0
2023-05-21T03:36:03.523Z,0
2023-05-21T03:37:03.476Z,0
2023-05-21T03:39:03.509Z,0
2023-05-21T03:40:03.513Z,0
2023-05-21T03:42:03.495Z,0
2023-05-21T03:43:03.482Z,0
2023-05-21T03:44:03.492Z,0
2023-05-21T03:45:03.564Z,0
2023-05-21T03:46:03.514Z,0
2023-05-21T03:47:03.518Z,0
2023-05-21T03:48:03.546Z,0
2023-05-21T03:49:03.483Z,0
2023-05-21T03:50:03.510Z,0
2023-05-21T03:51:03.510Z,0
2023-05-21T03:52:03.495Z,0
2023-05-21T03:53:03.565Z,0
2023-05-21T03:54:03.515Z,0
2023-05-21T03:55:03.518Z,0
2023-05-21T03:56:03.487Z,0
2023-05-21T03:57:03.503Z,0
2023-05-21T03:58:03.524Z,0
2023-05-21T03:59:03.491Z,0
2023-05-21T04:00:03.490Z,0
2023-05-21T04:01:03.507Z,0
2023-05-21T04:02:03.563Z,0
2023-05-21T04:03:03.562Z,0
2023-05-21T04:04:03.593Z,0
2023-05-21T04:05:03.500Z,0
2023-05-21T04:06:03.521Z,0
2023-05-21T04:07:03.498Z,0
2023-05-21T04:08:03.509Z,0
2023-05-21T04:09:03.491Z,0
2023-05-21T04:10:03.505Z,0
2023-05-21T04:11:03.541Z,0
2023-05-21T04:12:03.509Z,0
2023-05-21T04:13:03.501Z,0
2023-05-21T04:14:03.512Z,0
2023-05-21T04:15:03.502Z,0
2023-05-21T04:16:03.550Z,0
2023-05-21T04:17:03.487Z,0
2023-05-21T04:18:03.539Z,0
2023-05-21T04:19:03.533Z,0
2023-05-21T04:20:03.525Z,0
2023-05-21T04:21:03.518Z,0
2023-05-21T04:22:03.499Z,0
2023-05-21T04:23:03.560Z,0
2023-05-21T04:24:03.495Z,0
2023-05-21T04:25:03.500Z,0
2023-05-21T04:26:03.504Z,0
2023-05-21T04:27:03.499Z,0
2023-05-21T04:28:03.515Z,0
2023-05-21T04:29:03.517Z,0
2023-05-21T04:30:03.490Z,0
2023-05-21T04:31:03.578Z,0
2023-05-21T04:32:03.527Z,0
2023-05-21T04:33:03.559Z,0
2023-05-21T04:34:03.544Z,0
2023-05-21T04:35:03.505Z,0
2023-05-21T04:36:03.533Z,0
2023-05-21T04:37:03.487Z,0
2023-05-21T04:38:04.320Z,0
2023-05-21T04:39:03.494Z,0
2023-05-21T04:40:03.488Z,0
2023-05-21T04:41:03.530Z,0
2023-05-21T04:42:03.507Z,0
2023-05-21T04:43:03.494Z,0
2023-05-21T04:44:03.503Z,0
2023-05-21T04:45:03.524Z,0
2023-05-21T04:46:03.503Z,0
2023-05-21T04:47:03.532Z,0
2023-05-21T04:48:03.526Z,0
2023-05-21T04:49:03.514Z,0
2023-05-21T04:50:03.498Z,0
2023-05-21T04:51:03.508Z,0
2023-05-21T04:52:03.515Z,0
2023-05-21T04:53:03.507Z,0
2023-05-21T04:54:03.512Z,0
2023-05-21T04:55:03.543Z,0
2023-05-21T04:56:03.514Z,0
2023-05-21T04:57:03.488Z,0
2023-05-21T04:58:03.493Z,0
2023-05-21T04:59:05.451Z,0
2023-05-21T05:00:03.518Z,0
2023-05-21T05:02:03.493Z,0
2023-05-21T05:03:03.576Z,0
2023-05-21T05:04:03.533Z,0
2023-05-21T05:05:03.517Z,0
2023-05-21T05:07:03.503Z,0
2023-05-21T05:08:03.497Z,0
2023-05-21T05:09:03.514Z,0
2023-05-21T05:10:03.505Z,0
2023-05-21T05:11:03.539Z,0
2023-05-21T05:12:03.492Z,0
2023-05-21T05:13:03.523Z,0
2023-05-21T05:14:03.496Z,0
2023-05-21T05:15:03.497Z,0
2023-05-21T05:16:03.589Z,0
2023-05-21T05:17:03.515Z,0
2023-05-21T05:18:03.634Z,0
2023-05-21T05:19:03.560Z,0
2023-05-21T05:20:03.519Z,0
2023-05-21T05:21:03.520Z,0
2023-05-21T05:22:03.505Z,0
2023-05-21T05:23:03.516Z,0
2023-05-21T05:24:03.522Z,0
2023-05-21T05:25:03.533Z,0
2023-05-21T05:26:03.509Z,0
2023-05-21T05:27:03.525Z,0
2023-05-21T05:28:03.522Z,0
2023-05-21T05:29:03.522Z,0
2023-05-21T05:30:03.504Z,0
2023-05-21T05:31:03.610Z,0
2023-05-21T05:32:03.514Z,0
2023-05-21T05:33:03.553Z,0
2023-05-21T05:34:03.520Z,0
2023-05-21T05:35:03.516Z,0
2023-05-21T05:36:03.515Z,0
2023-05-21T05:37:03.549Z,0
2023-05-21T05:38:03.672Z,0
2023-05-21T05:39:03.521Z,0
2023-05-21T05:40:03.522Z,0
2023-05-21T05:41:03.503Z,0
2023-05-21T05:42:03.525Z,0
2023-05-21T05:43:03.527Z,0
2023-05-21T05:44:03.510Z,0
2023-05-21T05:45:03.509Z,0
2023-05-21T05:46:03.574Z,0
2023-05-21T05:47:03.511Z,0
2023-05-21T05:49:03.534Z,0
2023-05-21T05:50:03.510Z,0
2023-05-21T05:51:03.495Z,0
2023-05-21T05:52:03.507Z,0
2023-05-21T05:53:03.545Z,0
2023-05-21T05:54:03.517Z,0
2023-05-21T05:55:03.506Z,0
2023-05-21T05:56:03.515Z,0
2023-05-21T05:57:03.550Z,0
2023-05-21T05:58:03.492Z,0
2023-05-21T05:59:03.496Z,0
2023-05-21T06:00:03.519Z,0
2023-05-21T06:01:03.496Z,0
2023-05-21T06:02:03.553Z,0
2023-05-21T06:03:03.628Z,0
2023-05-21T06:04:03.512Z,0
2023-05-21T06:05:03.534Z,0
2023-05-21T06:06:03.588Z,0
2023-05-21T06:07:03.522Z,0
2023-05-21T06:08:03.522Z,0
2023-05-21T06:09:03.508Z,0
2023-05-21T06:10:03.522Z,0
2023-05-21T06:11:03.535Z,0
2023-05-21T06:12:03.524Z,0
2023-05-21T06:13:03.540Z,0
2023-05-21T06:14:03.502Z,0
2023-05-21T06:15:03.511Z,0
2023-05-21T06:16:03.569Z,0
2023-05-21T06:17:03.656Z,0
2023-05-21T06:18:03.602Z,0
2023-05-21T06:19:03.605Z,0
2023-05-21T06:20:03.507Z,0
2023-05-21T06:21:03.508Z,0
2023-05-21T06:22:03.509Z,0
2023-05-21T06:23:03.512Z,0
2023-05-21T06:24:03.521Z,0
2023-05-21T06:25:03.516Z,0
2023-05-21T06:26:03.511Z,0
2023-05-21T06:27:03.505Z,0
2023-05-21T06:28:03.559Z,0
2023-05-21T06:29:03.530Z,0
2023-05-21T06:30:03.517Z,0
2023-05-21T06:32:03.515Z,0
2023-05-21T06:33:03.644Z,0
2023-05-21T06:34:03.642Z,0
2023-05-21T06:35:03.496Z,0
2023-05-21T06:36:03.519Z,0
2023-05-21T06:37:03.503Z,0
2023-05-21T06:38:03.732Z,0
2023-05-21T06:39:03.519Z,0
2023-05-21T06:40:03.532Z,0
2023-05-21T06:41:03.499Z,0
2023-05-21T06:42:03.530Z,0
2023-05-21T06:43:03.529Z,0
2023-05-21T06:44:03.510Z,0
2023-05-21T06:45:03.528Z,0
2023-05-21T06:46:03.585Z,0
2023-05-21T06:47:03.510Z,0
2023-05-21T06:48:03.534Z,0
2023-05-21T06:49:03.539Z,0
2023-05-21T06:50:03.505Z,0
2023-05-21T06:51:03.525Z,0
2023-05-21T06:52:03.525Z,0
2023-05-21T06:53:03.526Z,0
2023-05-21T06:54:03.505Z,0
2023-05-21T06:55:03.581Z,0
2023-05-21T06:56:03.545Z,0
2023-05-21T06:57:03.538Z,0
2023-05-21T06:58:03.515Z,0
2023-05-21T06:59:03.521Z,0
2023-05-21T07:00:03.601Z,0
2023-05-21T07:01:03.544Z,0
2023-05-21T07:02:04.763Z,0
2023-05-21T07:03:03.651Z,0
2023-05-21T07:04:03.528Z,0
2023-05-21T07:05:03.516Z,0
2023-05-21T07:06:03.535Z,0
2023-05-21T07:07:03.532Z,0
2023-05-21T07:08:03.516Z,0
2023-05-21T07:09:03.523Z,0
2023-05-21T07:10:03.519Z,0
2023-05-21T07:11:03.518Z,0
2023-05-21T07:12:03.539Z,0
2023-05-21T07:13:03.525Z,0.1
2023-05-21T07:14:03.545Z,0
2023-05-21T07:15:03.531Z,0
2023-05-21T07:16:03.531Z,0
2023-05-21T07:17:03.602Z,0
2023-05-21T07:18:03.571Z,0
2023-05-21T07:19:03.583Z,0
2023-05-21T07:20:03.541Z,0
2023-05-21T07:21:03.507Z,0
2023-05-21T07:22:03.522Z,0
2023-05-21T07:23:03.530Z,0
2023-05-21T07:24:03.526Z,0.1
2023-05-21T07:25:03.536Z,0.2
2023-05-21T07:26:03.525Z,0.3
2023-05-21T07:27:08.754Z,0.4
2023-05-21T07:28:05.876Z,0.5
2023-05-21T07:29:03.537Z,0.4
2023-05-21T07:30:03.525Z,0.4
2023-05-21T07:31:03.563Z,0.3
2023-05-21T07:32:03.539Z,0.3
2023-05-21T07:33:03.601Z,0.3
2023-05-21T07:34:03.574Z,0.4
2023-05-21T07:35:03.546Z,0.3
2023-05-21T07:36:03.518Z,0.4
2023-05-21T07:37:03.528Z,0.4
2023-05-21T07:38:03.573Z,0.4
2023-05-21T07:39:03.527Z,0.6
2023-05-21T07:40:03.523Z,0.4
2023-05-21T07:41:03.536Z,0.5
2023-05-21T07:42:03.515Z,0.4
2023-05-21T07:43:03.526Z,0.5
2023-05-21T07:44:03.534Z,0.5
2023-05-21T07:45:03.527Z,0.6
2023-05-21T07:46:03.542Z,0.9
2023-05-21T07:47:03.544Z,1.1
2023-05-21T07:49:03.513Z,1.2
2023-05-21T07:50:03.524Z,1.4
2023-05-21T07:51:03.512Z,1.6
2023-05-21T07:52:03.529Z,1.6
2023-05-21T07:53:03.544Z,1.4
2023-05-21T07:54:03.552Z,1.5
2023-05-21T07:55:03.534Z,1.5
2023-05-21T07:56:03.552Z,1.6
2023-05-21T07:57:03.544Z,1.6
2023-05-21T07:58:03.517Z,1.8
2023-05-21T07:59:03.537Z,1.8
2023-05-21T08:00:03.627Z,2
2023-05-21T08:01:03.547Z,2
2023-05-21T08:02:03.518Z,2.1
2023-05-21T08:03:03.620Z,2.4
2023-05-21T08:04:03.627Z,2.4
2023-05-21T08:05:03.604Z,2.5
2023-05-21T08:06:03.532Z,2.3
2023-05-21T08:07:03.540Z,2.4
2023-05-21T08:08:03.547Z,2.2
2023-05-21T08:09:03.590Z,2.3
2023-05-21T08:10:03.548Z,2.4
2023-05-21T08:11:03.540Z,2.2
2023-05-21T08:12:03.559Z,2.5
2023-05-21T08:13:03.533Z,2.4
2023-05-21T08:14:03.537Z,2.9
2023-05-21T08:15:03.523Z,2.9
2023-05-21T08:16:03.616Z,2.8
2023-05-21T08:17:03.540Z,2.9
2023-05-21T08:18:03.665Z,2.7
2023-05-21T08:19:03.622Z,2.7
2023-05-21T08:20:03.604Z,2.5
2023-05-21T08:22:03.553Z,2.3
2023-05-21T08:23:03.534Z,2.4
2023-05-21T08:24:03.533Z,2.3
2023-05-21T08:25:03.542Z,2
2023-05-21T08:26:03.538Z,2.2
2023-05-21T08:27:03.564Z,2.3
2023-05-21T08:28:03.523Z,2.2
2023-05-21T08:29:03.581Z,1.9
2023-05-21T08:30:03.545Z,2.3
2023-05-21T08:31:03.588Z,2.4
2023-05-21T08:32:03.667Z,2.4
2023-05-21T08:33:03.583Z,2.4
2023-05-21T08:34:03.538Z,2.4
2023-05-21T08:35:03.567Z,2.3
2023-05-21T08:37:03.550Z,2.2
2023-05-21T08:38:03.752Z,2.3
2023-05-21T08:39:03.529Z,2.1
2023-05-21T08:40:03.554Z,2.1
2023-05-21T08:41:03.532Z,2.3
2023-05-21T08:42:03.536Z,2.2
2023-05-21T08:43:03.529Z,2.5
2023-05-21T08:44:03.560Z,2.3
2023-05-21T08:45:03.567Z,2.4
2023-05-21T08:46:03.621Z,2.5
2023-05-21T08:47:03.537Z,2.5
2023-05-21T08:48:03.613Z,2.5
2023-05-21T08:49:03.589Z,2.4
2023-05-21T08:50:03.537Z,2.4
2023-05-21T08:51:03.538Z,2.7
2023-05-21T08:52:03.550Z,2.6
2023-05-21T08:53:07.586Z,2.6
2023-05-21T08:55:03.558Z,2.5
2023-05-21T08:56:03.547Z,2.5
2023-05-21T08:57:03.538Z,2.5
2023-05-21T08:58:03.569Z,2.6
2023-05-21T08:59:03.560Z,2.5
2023-05-21T09:00:03.537Z,2.5
2023-05-21T09:01:03.572Z,2.6
2023-05-21T09:02:03.549Z,2.4
2023-05-21T09:03:03.696Z,2.5
2023-05-21T09:04:18.866Z,2.5
2023-05-21T09:05:03.631Z,2.5
2023-05-21T09:07:03.559Z,2.9
2023-05-21T09:08:03.531Z,2.9
2023-05-21T09:09:03.545Z,3
2023-05-21T09:10:03.555Z,3.1
2023-05-21T09:11:03.593Z,3.1
2023-05-21T09:12:03.534Z,3.2
2023-05-21T09:13:03.563Z,3.4
2023-05-21T09:14:03.578Z,3.7
2023-05-21T09:15:03.542Z,3.9
2023-05-21T09:16:03.556Z,4
2023-05-21T09:17:03.625Z,3.8
2023-05-21T09:18:03.611Z,4
2023-05-21T09:19:04.724Z,4.3
2023-05-21T09:20:03.558Z,4.2
2023-05-21T09:21:03.561Z,4.1
2023-05-21T09:22:03.554Z,3.8
2023-05-21T09:23:03.615Z,3.9
2023-05-21T09:24:03.538Z,3.9
2023-05-21T09:25:03.562Z,4
2023-05-21T09:26:03.565Z,4.1
2023-05-21T09:27:03.548Z,4.1
2023-05-21T09:28:03.534Z,3.9
2023-05-21T09:29:03.551Z,3.9
2023-05-21T09:30:03.560Z,4.2
2023-05-21T09:31:03.603Z,4.6
2023-05-21T09:32:03.541Z,4.8
2023-05-21T09:33:03.734Z,4.6
2023-05-21T09:34:03.557Z,5
2023-05-21T09:35:03.546Z,4.8
2023-05-21T09:36:03.541Z,4.3
2023-05-21T09:37:04.983Z,4.1
2023-05-21T09:38:03.575Z,4.1
2023-05-21T09:39:03.557Z,4
2023-05-21T09:40:03.549Z,3.9
2023-05-21T09:41:03.561Z,4.1
2023-05-21T09:42:03.557Z,3.9
2023-05-21T09:43:03.549Z,3.8
2023-05-21T09:44:03.540Z,3.9
2023-05-21T09:45:03.552Z,3.9
2023-05-21T09:46:03.577Z,3.9
2023-05-21T09:47:03.540Z,4
2023-05-21T09:48:03.590Z,4.5
2023-05-21T09:49:03.561Z,4.4
2023-05-21T09:50:03.553Z,4.6
2023-05-21T09:51:03.548Z,4.3
2023-05-21T09:52:03.565Z,4.3
2023-05-21T09:53:03.565Z,4
2023-05-21T09:54:03.552Z,4
2023-05-21T09:55:03.564Z,4.4
2023-05-21T09:56:03.552Z,4.2
2023-05-21T09:57:03.556Z,4.5
2023-05-21T09:58:03.551Z,4.7
2023-05-21T09:59:03.554Z,4.9
2023-05-21T10:00:03.571Z,4.7
2023-05-21T10:01:03.561Z,4.6
2023-05-21T10:02:03.616Z,4.5
2023-05-21T10:03:03.578Z,4.5
2023-05-21T10:04:03.585Z,4.4
2023-05-21T10:05:03.585Z,4.4
2023-05-21T10:06:03.556Z,4.5
2023-05-21T10:07:03.564Z,4.7
2023-05-21T10:08:03.557Z,4.5
2023-05-21T10:09:05.619Z,4.7
2023-05-21T10:10:03.563Z,4.5
2023-05-21T10:11:03.567Z,4.5
2023-05-21T10:12:03.606Z,4.6
2023-05-21T10:13:03.576Z,4.6
2023-05-21T10:14:03.559Z,4.8
2023-05-21T10:15:03.578Z,5.2
2023-05-21T10:17:03.572Z,5.4
2023-05-21T10:18:03.671Z,5.4
2023-05-21T10:19:03.626Z,5
2023-05-21T10:20:03.551Z,5.5
2023-05-21T10:21:03.585Z,5.5
2023-05-21T10:22:03.588Z,5.4
2023-05-21T10:23:03.563Z,5.2
2023-05-21T10:24:03.563Z,6
2023-05-21T10:25:03.688Z,6.2
2023-05-21T10:27:03.553Z,5.9
2023-05-21T10:28:03.610Z,5.7
2023-05-21T10:29:03.579Z,5.7
2023-05-21T10:30:03.568Z,5.8
2023-05-21T10:31:03.567Z,5.6
2023-05-21T10:32:03.620Z,5.4
2023-05-21T10:33:03.606Z,5.4
2023-05-21T10:34:03.566Z,5.5
2023-05-21T10:35:03.577Z,5.4
2023-05-21T10:37:03.576Z,5.5
2023-05-21T10:38:03.572Z,5.5
2023-05-21T10:39:03.644Z,5.8
2023-05-21T10:40:03.562Z,5.6
2023-05-21T10:41:03.574Z,5.6
2023-05-21T10:42:03.583Z,5.4
2023-05-21T10:43:03.604Z,5.4
2023-05-21T10:44:03.568Z,5.2
2023-05-21T10:45:03.568Z,5.3
2023-05-21T10:46:03.607Z,5.3
2023-05-21T10:47:03.588Z,5.4
2023-05-21T10:48:03.611Z,5.7
2023-05-21T10:49:03.564Z,6.2
2023-05-21T10:50:03.580Z,6.2
2023-05-21T10:51:03.601Z,6.2
2023-05-21T10:52:03.607Z,6.5
2023-05-21T10:53:03.581Z,6.5
2023-05-21T10:54:03.573Z,6.3
2023-05-21T10:55:03.589Z,6.2
2023-05-21T10:56:03.628Z,6
2023-05-21T10:57:03.611Z,6.5
2023-05-21T10:58:03.577Z,6.5
2023-05-21T10:59:03.585Z,6.6
2023-05-21T11:01:03.609Z,6.4
2023-05-21T11:02:03.598Z,6.6
2023-05-21T11:03:03.676Z,6.5
2023-05-21T11:04:03.571Z,6.3
2023-05-21T11:05:03.590Z,6.3
2023-05-21T11:07:03.612Z,6.3
2023-05-21T11:08:03.604Z,6.3
2023-05-21T11:09:03.593Z,6.2
2023-05-21T11:10:03.573Z,6.4
2023-05-21T11:11:03.609Z,6.4
2023-05-21T11:12:03.593Z,6.3
2023-05-21T11:13:03.572Z,6.3
2023-05-21T11:14:03.592Z,6.5
2023-05-21T11:15:03.591Z,6.4
2023-05-21T11:16:03.586Z,6.4
2023-05-21T11:17:03.649Z,6.4
2023-05-21T11:18:03.580Z,6.5
2023-05-21T11:19:03.672Z,6.4
2023-05-21T11:20:03.602Z,6.2
2023-05-21T11:21:03.594Z,6.7
2023-05-21T11:22:03.616Z,6.8
2023-05-21T11:23:03.594Z,7
2023-05-21T11:24:03.586Z,7.2
2023-05-21T11:25:03.656Z,7.1
2023-05-21T11:26:03.595Z,7.3
2023-05-21T11:27:03.575Z,7.5
2023-05-21T11:28:03.584Z,7.6
2023-05-21T11:29:03.587Z,8.1
2023-05-21T11:30:03.607Z,8.4
2023-05-21T11:31:03.624Z,8.1
2023-05-21T11:32:03.624Z,8.4
2023-05-21T11:33:03.634Z,8
2023-05-21T11:34:03.595Z,7.9
2023-05-21T11:35:03.622Z,7.7
2023-05-21T11:37:03.598Z,7.7
2023-05-21T11:38:03.581Z,7.5
2023-05-21T11:39:03.626Z,7.6
2023-05-21T11:40:03.601Z,7.2
2023-05-21T11:41:03.603Z,7.4
2023-05-21T11:42:04.693Z,7.5
2023-05-21T11:43:03.592Z,7.6
2023-05-21T11:44:03.657Z,7.7
2023-05-21T11:45:03.602Z,7.7
2023-05-21T11:46:03.719Z,7.6
2023-05-21T11:47:03.669Z,7.8
2023-05-21T11:48:03.647Z,7.7
2023-05-21T11:49:03.628Z,7.7
2023-05-21T11:50:03.596Z,7.5
2023-05-21T11:51:03.660Z,7.6
2023-05-21T11:52:03.585Z,7.9
2023-05-21T11:53:03.605Z,8
2023-05-21T11:54:03.591Z,7.9
2023-05-21T11:55:03.614Z,8
2023-05-21T11:56:03.602Z,7.5
2023-05-21T11:57:03.607Z,7.9
2023-05-21T11:58:03.595Z,7.3
2023-05-21T11:59:03.600Z,7.2
2023-05-21T12:00:03.622Z,7.6
2023-05-21T12:01:03.623Z,7.3
2023-05-21T12:02:03.589Z,7.4
2023-05-21T12:03:03.711Z,7.4
2023-05-21T12:04:03.625Z,7.5
2023-05-21T12:05:03.606Z,7.2
2023-05-21T12:06:03.708Z,6.7
2023-05-21T12:07:03.691Z,7.2
2023-05-21T12:08:03.882Z,7.1
2023-05-21T12:09:03.634Z,8.1
2023-05-21T12:10:03.589Z,8.2
2023-05-21T12:11:03.597Z,7.4
2023-05-21T12:12:03.636Z,7.4
2023-05-21T12:13:03.621Z,7.5
2023-05-21T12:14:03.671Z,7.3
2023-05-21T12:15:03.624Z,7.3
2023-05-21T12:17:03.628Z,7.3
2023-05-21T12:18:03.667Z,7.2
2023-05-21T12:19:03.647Z,7.1
2023-05-21T12:20:03.646Z,8
2023-05-21T12:22:03.611Z,7.8
2023-05-21T12:23:03.606Z,7.5
2023-05-21T12:24:03.600Z,7.6
2023-05-21T12:25:03.649Z,7.8
2023-05-21T12:26:03.643Z,7.6
2023-05-21T12:27:03.612Z,7.5
2023-05-21T12:28:03.644Z,7.5
2023-05-21T12:29:03.630Z,7.4
2023-05-21T12:30:03.606Z,7.3
2023-05-21T12:31:03.608Z,7
2023-05-21T12:32:03.742Z,7.5
2023-05-21T12:33:03.664Z,7.6
2023-05-21T12:34:03.650Z,7.4
2023-05-21T12:35:03.651Z,7.9
2023-05-21T12:36:03.608Z,7.7
2023-05-21T12:37:03.629Z,8.1
2023-05-21T12:38:03.712Z,8
2023-05-21T12:39:03.621Z,7.9
2023-05-21T12:40:03.632Z,8.1
2023-05-21T12:41:03.653Z,8
2023-05-21T12:42:03.604Z,7.9
2023-05-21T12:43:03.607Z,7.5
2023-05-21T12:44:03.619Z,7.7
2023-05-21T12:45:03.633Z,8.1
2023-05-21T12:46:03.662Z,7.7
2023-05-21T12:47:03.613Z,7.7
2023-05-21T12:48:03.701Z,7.7
2023-05-21T12:49:03.627Z,7.4
2023-05-21T12:50:03.625Z,7.5
2023-05-21T12:51:03.620Z,7.8
2023-05-21T12:52:03.626Z,7.6
2023-05-21T12:53:03.627Z,7.4
2023-05-21T12:54:03.612Z,7.1
2023-05-21T12:55:03.630Z,7.5
2023-05-21T12:56:03.674Z,7.6
2023-05-21T12:57:03.616Z,7.6
2023-05-21T12:58:03.756Z,7.8
2023-05-21T12:59:03.656Z,8
2023-05-21T13:00:03.619Z,7.7
2023-05-21T13:01:05.356Z,7.5
2023-05-21T13:02:03.685Z,7.7
2023-05-21T13:03:03.664Z,8.2
2023-05-21T13:04:03.720Z,8.1
2023-05-21T13:05:03.610Z,8.1
2023-05-21T13:06:03.622Z,7.9
2023-05-21T13:07:05.034Z,8.2
2023-05-21T13:08:03.631Z,8.3
2023-05-21T13:09:03.654Z,8.2
2023-05-21T13:10:03.626Z,8.6
2023-05-21T13:11:03.679Z,8.4
2023-05-21T13:12:03.644Z,8.2
2023-05-21T13:13:03.662Z,8.3
2023-05-21T13:14:03.671Z,8.2
2023-05-21T13:15:03.635Z,8
2023-05-21T13:16:03.674Z,8.2
2023-05-21T13:17:03.640Z,7.9
2023-05-21T13:18:03.665Z,8.4
2023-05-21T13:19:03.670Z,8.2
2023-05-21T13:20:03.660Z,8.1
2023-05-21T13:21:03.656Z,8.3
2023-05-21T13:22:03.623Z,8.3
2023-05-21T13:23:05.852Z,7.9
2023-05-21T13:24:03.624Z,8.1
2023-05-21T13:25:03.642Z,8.6
2023-05-21T13:26:03.656Z,9.1
2023-05-21T13:27:03.643Z,8.9
2023-05-21T13:28:03.643Z,8.9
2023-05-21T13:29:03.631Z,8.7
2023-05-21T13:30:03.636Z,8.5
2023-05-21T13:31:03.665Z,8.4
2023-05-21T13:32:03.683Z,8.4
2023-05-21T13:33:03.885Z,9
2023-05-21T13:34:04.973Z,8.2
2023-05-21T13:35:03.644Z,8.4
2023-05-21T13:36:03.662Z,8.5
2023-05-21T13:37:03.647Z,8.4
2023-05-21T13:38:03.745Z,8.7
2023-05-21T13:39:03.642Z,8.6
2023-05-21T13:40:03.655Z,8.3
2023-05-21T13:41:03.685Z,8.4
2023-05-21T13:42:03.725Z,8.4
2023-05-21T13:43:03.703Z,9
2023-05-21T13:44:03.630Z,8.9
2023-05-21T13:45:03.654Z,8.9
2023-05-21T13:46:03.652Z,8.4
2023-05-21T13:47:03.813Z,8.7
2023-05-21T13:48:03.698Z,8.6
2023-05-21T13:49:03.650Z,8.5
2023-05-21T13:50:03.671Z,8.3
2023-05-21T13:52:03.680Z,8.6
2023-05-21T13:53:03.653Z,8.4
2023-05-21T13:54:03.661Z,8.6
2023-05-21T13:55:03.657Z,8.7
2023-05-21T13:56:03.654Z,8.5
2023-05-21T13:57:03.677Z,8.8
2023-05-21T13:58:03.638Z,8.8
2023-05-21T13:59:03.638Z,8.7
2023-05-21T14:00:03.657Z,8.7
2023-05-21T14:01:03.680Z,8.5
2023-05-21T14:02:03.661Z,8.9
2023-05-21T14:03:03.728Z,9.3
2023-05-21T14:04:03.651Z,8.9
2023-05-21T14:05:03.685Z,8.8
2023-05-21T14:06:03.674Z,8.5
2023-05-21T14:07:03.730Z,8.6
2023-05-21T14:08:03.807Z,8.9
2023-05-21T14:09:03.665Z,8.8
2023-05-21T14:10:03.653Z,8.9
2023-05-21T14:11:04.952Z,9.1
2023-05-21T14:12:05.610Z,9.1
2023-05-21T14:13:11.982Z,8.7
2023-05-21T14:14:03.663Z,9.2
2023-05-21T14:15:03.656Z,9.3
2023-05-21T14:16:03.669Z,9.1
2023-05-21T14:17:03.647Z,9.1
2023-05-21T14:18:03.705Z,9
2023-05-21T14:19:03.705Z,9.2
2023-05-21T14:20:03.697Z,9.1
2023-05-21T14:21:03.646Z,8.9
2023-05-21T14:22:03.666Z,8.9
2023-05-21T14:23:03.664Z,9.2
2023-05-21T14:24:03.701Z,9.2
2023-05-21T14:25:03.667Z,9.4
2023-05-21T14:26:03.660Z,9.4
2023-05-21T14:27:03.656Z,9.3
2023-05-21T14:28:03.685Z,9.1
2023-05-21T14:29:03.665Z,9.2
2023-05-21T14:30:03.670Z,9.3
2023-05-21T14:31:03.646Z,9.5
2023-05-21T14:32:03.736Z,9.7
2023-05-21T14:33:03.717Z,9.7
2023-05-21T14:34:03.697Z,10.1
2023-05-21T14:35:03.661Z,10.3
2023-05-21T14:37:03.648Z,10
2023-05-21T14:38:03.809Z,9.9
2023-05-21T14:39:03.646Z,9.9
2023-05-21T14:40:03.676Z,9.6
2023-05-21T14:41:03.709Z,9.9
2023-05-21T14:42:03.673Z,9.6
2023-05-21T14:43:03.685Z,9.7
2023-05-21T14:44:03.649Z,9.7
2023-05-21T14:45:17.610Z,9.6
2023-05-21T14:46:03.749Z,9.6
2023-05-21T14:47:03.672Z,9.5
2023-05-21T14:48:03.728Z,9.5
2023-05-21T14:49:03.695Z,9.3
2023-05-21T14:50:03.707Z,9.4
2023-05-21T14:51:03.659Z,9.1
2023-05-21T14:52:03.658Z,9.4